Time;durP1;ratioP1;P1;durP2;ratioP2;P2;SDS_P1;SDS_P2;PMS_P1;PMS_P2;Temp;Humidity;BMP_temperature;BMP_pressure;BME280_temperature;BME280_humidity;BME280_pressure;Samples;Min_cycle;Max_cycle;Signal;HPM_P1;HPM_P2
2021/10/28 00:14:29;;;;;;;;;;;;;;;5.31;78.75;97009.97;5074966;28;20078;-77
2021/10/28 00:16:57;;;;;;;;;;;;;;;5.27;78.65;97008.69;5075074;28;19956;-76
2021/10/28 00:19:23;;;;;;;;;;;;;;;5.23;78.79;97008.25;5075156;28;19958;-75
2021/10/28 00:21:49;;;;;;;;;;;;;;;5.21;79.01;97001.59;5074599;28;20075;-75
2021/10/28 00:24:15;;;;;;;;;;;;;;;5.21;79.10;97009.41;5074718;28;20345;-74
2021/10/28 00:26:45;;;;;;;;;;;;;;;5.21;79.16;97002.41;5074751;28;19959;-75
2021/10/28 00:29:14;;;;;;;;;;;;;;;5.20;79.35;97003.38;5060707;28;20298;-75
2021/10/28 00:31:40;;;;;;;;;;;;;;;5.20;79.36;97000.78;5075109;28;19970;-75
2021/10/28 00:34:07;;;;;;;;;;;;;;;5.21;79.53;96994.59;5074549;28;19958;-76
2021/10/28 00:36:34;;;;;;;;;;;;;;;5.22;79.64;96998.00;5074393;28;19957;-75
2021/10/28 00:39:00;;;;;;;;;;;;;;;5.21;80.22;96997.22;5074353;28;19958;-76
2021/10/28 00:41:26;;;;;;;;;;;;;;;5.19;80.90;96993.16;5074162;28;19969;-75
2021/10/28 00:43:57;;;;;;;;;;;;;;;5.19;81.75;96991.38;5074536;28;20422;-76
2021/10/28 00:46:23;;;;;;;;;;;;;;;5.08;82.88;97000.34;5074507;28;19963;-76
2021/10/28 00:48:50;;;;;;;;;;;;;;;4.99;83.75;97009.16;5074671;28;19961;-75
2021/10/28 00:51:20;;;;;;;;;;;;;;;4.93;83.46;96999.41;5074237;28;19959;-76
2021/10/28 00:53:46;;;;;;;;;;;;;;;4.84;83.77;96997.84;5074432;28;19990;-76
2021/10/28 00:56:12;;;;;;;;;;;;;;;4.76;84.61;97008.25;5074241;28;19956;-76
2021/10/28 00:58:39;;;;;;;;;;;;;;;4.75;85.43;97004.88;5074138;28;19956;-76
2021/10/28 01:01:06;;;;;;;;;;;;;;;4.77;85.17;97005.50;5074227;28;19965;-76
2021/10/28 01:03:33;;;;;;;;;;;;;;;4.78;84.23;97008.91;5074145;28;19958;-76
2021/10/28 01:05:59;;;;;;;;;;;;;;;4.75;83.84;97011.84;5074208;28;19954;-76
2021/10/28 01:08:26;;;;;;;;;;;;;;;4.64;83.92;97008.63;5073937;28;20389;-76
2021/10/28 01:10:52;;;;;;;;;;;;;;;4.62;84.55;97012.34;5074139;28;19967;-76
2021/10/28 01:13:19;;;;;;;;;;;;;;;4.61;84.67;97008.16;5073896;28;19948;-76
2021/10/28 01:15:46;;;;;;;;;;;;;;;4.60;83.79;97006.50;5074421;28;19954;-76
2021/10/28 01:18:12;;;;;;;;;;;;;;;4.57;84.90;97006.84;5074021;28;19952;-76
2021/10/28 01:20:39;;;;;;;;;;;;;;;4.54;85.88;97008.00;5074073;28;19965;-76
2021/10/28 01:23:06;;;;;;;;;;;;;;;4.47;85.55;96999.22;5073880;28;20344;-76
2021/10/28 01:25:32;;;;;;;;;;;;;;;4.39;83.91;97007.03;5073654;28;19967;-76
2021/10/28 01:28:00;;;;;;;;;;;;;;;4.27;85.00;97007.38;5073985;28;19953;-77
2021/10/28 01:30:26;;;;;;;;;;;;;;;4.22;86.22;97001.88;5073715;28;19956;-77
2021/10/28 01:32:52;;;;;;;;;;;;;;;4.23;86.82;96995.69;5073832;28;20005;-76
2021/10/28 01:35:19;;;;;;;;;;;;;;;4.27;87.34;96988.41;5074167;28;19960;-76
2021/10/28 01:37:45;;;;;;;;;;;;;;;4.35;87.03;96995.38;5073675;28;19965;-76
2021/10/28 01:40:12;;;;;;;;;;;;;;;4.42;86.76;96991.13;5073340;28;19965;-76
2021/10/28 01:42:48;;;;;;;;;;;;;;;4.48;86.73;96991.28;5073901;28;19971;-76
2021/10/28 01:45:14;;;;;;;;;;;;;;;4.56;86.64;97005.25;5073956;28;19952;-76
2021/10/28 01:47:40;;;;;;;;;;;;;;;4.58;86.13;96998.09;5073440;28;20054;-76
2021/10/28 01:50:07;;;;;;;;;;;;;;;4.57;85.87;96996.47;5073650;28;19963;-76
2021/10/28 01:52:35;;;;;;;;;;;;;;;4.47;85.90;96992.28;5072901;28;19976;-76
2021/10/28 01:55:01;;;;;;;;;;;;;;;4.39;86.91;96994.88;5073583;28;19959;-76
2021/10/28 01:57:27;;;;;;;;;;;;;;;4.30;86.49;97008.84;5073387;28;19961;-76
2021/10/28 01:59:54;;;;;;;;;;;;;;;4.29;87.20;96996.03;5073543;28;19951;-76
2021/10/28 02:02:19;;;;;;;;;;;;;;;4.30;87.17;96995.03;5073577;28;19973;-76
2021/10/28 02:04:46;;;;;;;;;;;;;;;4.30;87.28;96993.25;5073525;28;19956;-76
2021/10/28 02:07:13;;;;;;;;;;;;;;;4.26;87.64;96992.78;5073336;28;19943;-76
2021/10/28 02:09:39;;;;;;;;;;;;;;;4.25;86.82;96985.97;5073269;28;20403;-76
2021/10/28 02:12:05;;;;;;;;;;;;;;;4.24;87.67;96984.34;5073501;28;19962;-76
2021/10/28 02:14:31;;;;;;;;;;;;;;;4.25;87.04;96985.16;5073488;28;19963;-76
2021/10/28 02:16:57;;;;;;;;;;;;;;;4.26;86.89;96985.00;5073269;28;19956;-76
2021/10/28 02:19:23;;;;;;;;;;;;;;;4.27;87.14;96988.41;5073495;28;19968;-77
2021/10/28 02:21:49;;;;;;;;;;;;;;;4.27;87.60;96980.63;5073073;28;19978;-76
2021/10/28 02:24:15;;;;;;;;;;;;;;;4.30;87.72;96982.88;5073072;28;20011;-76
2021/10/28 02:26:41;;;;;;;;;;;;;;;4.35;87.43;96982.41;5073624;28;19961;-79
2021/10/28 02:29:07;;;;;;;;;;;;;;;4.41;87.02;96981.72;5073320;28;19955;-76
2021/10/28 02:31:33;;;;;;;;;;;;;;;4.43;86.77;96983.19;5073329;28;20437;-77
2021/10/28 02:33:59;;;;;;;;;;;;;;;4.39;86.53;96981.91;5073261;28;19959;-77
2021/10/28 02:36:25;;;;;;;;;;;;;;;4.40;86.46;96980.09;5073003;28;19963;-77
2021/10/28 02:38:51;;;;;;;;;;;;;;;4.42;86.59;96973.75;5072339;28;20479;-76
2021/10/28 02:41:17;;;;;;;;;;;;;;;4.45;86.52;96972.63;5073085;28;20067;-77
2021/10/28 02:43:43;;;;;;;;;;;;;;;4.47;86.11;96974.09;5073359;28;19958;-76
2021/10/28 02:46:08;;;;;;;;;;;;;;;4.45;85.47;96973.44;5073069;28;19961;-76
2021/10/28 02:48:34;;;;;;;;;;;;;;;4.39;86.08;96981.91;5073184;28;19958;-77
2021/10/28 02:51:00;;;;;;;;;;;;;;;4.38;86.19;96976.88;5074314;28;19948;-77
2021/10/28 02:53:26;;;;;;;;;;;;;;;4.40;86.56;96973.13;5076857;28;20342;-77
2021/10/28 02:55:53;;;;;;;;;;;;;;;4.45;86.57;96977.81;5077050;28;19988;-77
2021/10/28 02:58:19;;;;;;;;;;;;;;;4.47;86.36;96975.84;5076568;28;19961;-77
2021/10/28 03:00:44;;;;;;;;;;;;;;;4.47;86.37;96978.44;5076717;28;19955;-77
2021/10/28 03:03:10;;;;;;;;;;;;;;;4.49;86.96;96981.69;5076236;28;19976;-77
2021/10/28 03:05:37;;;;;;;;;;;;;;;4.49;86.45;96981.69;5076653;28;20329;-76
2021/10/28 03:08:03;;;;;;;;;;;;;;;4.41;86.58;96974.75;5076818;28;19950;-77
2021/10/28 03:10:29;;;;;;;;;;;;;;;4.40;85.85;96967.13;5076405;28;19977;-76
2021/10/28 03:12:55;;;;;;;;;;;;;;;4.41;87.09;96971.31;5076335;28;20412;-77
2021/10/28 03:15:23;;;;;;;;;;;;;;;4.42;86.46;96965.97;5076320;28;19955;-77
2021/10/28 03:26:01;;;;;;;;;;;;;;;4.16;87.41;96968.78;5067312;28;19969;-77
2021/10/28 03:28:27;;;;;;;;;;;;;;;4.10;87.00;96979.81;5075807;28;19950;-77
2021/10/28 03:30:53;;;;;;;;;;;;;;;4.01;87.45;96973.84;5076053;28;19962;-77
2021/10/28 03:33:23;;;;;;;;;;;;;;;3.95;87.01;96969.28;5076011;28;20469;-77
2021/10/28 03:35:49;;;;;;;;;;;;;;;3.94;87.69;96974.63;5076012;28;20327;-77
2021/10/28 03:38:20;;;;;;;;;;;;;;;3.94;87.66;96978.03;5076052;28;19961;-77
2021/10/28 04:07:05;;;;;;;;;;;;;;;4.24;88.96;96961.00;5059834;28;19953;-77
2021/10/28 04:18:08;;;;;;;;;;;;;;;4.32;89.17;96948.97;5075208;28;19960;-77
2021/10/28 04:31:40;;;;;;;;;;;;;;;4.60;88.91;96936.38;5060826;28;19984;-77
2021/10/28 04:34:08;;;;;;;;;;;;;;;4.64;88.89;96938.47;5074798;28;20402;-78
2021/10/28 04:36:34;;;;;;;;;;;;;;;4.68;89.15;96937.19;5065051;28;19961;-77
2021/10/28 04:39:01;;;;;;;;;;;;;;;4.74;89.31;96940.06;5074602;28;19977;-77
2021/10/28 04:41:27;;;;;;;;;;;;;;;4.75;89.04;96928.72;5074383;28;19945;-77
2021/10/28 04:43:53;;;;;;;;;;;;;;;4.76;90.84;96930.31;5074694;28;19952;-77
2021/10/28 04:46:19;;;;;;;;;;;;;;;4.77;90.57;96930.16;5074424;28;19950;-77
2021/10/28 04:48:46;;;;;;;;;;;;;;;4.80;91.03;96932.41;5074633;28;19950;-77
2021/10/28 04:51:12;;;;;;;;;;;;;;;4.83;90.82;96926.03;5074491;28;19963;-77
2021/10/28 04:53:38;;;;;;;;;;;;;;;4.86;91.34;96933.53;5074691;28;19983;-78
2021/10/28 04:56:04;;;;;;;;;;;;;;;4.85;92.19;96922.31;5074306;28;20318;-77
2021/10/28 04:58:31;;;;;;;;;;;;;;;4.86;91.03;96923.94;5073398;28;20278;-77
2021/10/28 05:00:57;;;;;;;;;;;;;;;4.89;90.80;96922.78;5074247;28;20027;-77
2021/10/28 05:03:23;;;;;;;;;;;;;;;4.91;90.37;96918.22;5074204;28;19971;-77
2021/10/28 05:05:49;;;;;;;;;;;;;;;4.88;89.45;96914.16;5074229;28;19998;-77
2021/10/28 05:08:15;;;;;;;;;;;;;;;4.91;89.82;96914.81;5074043;28;19945;-78
2021/10/28 05:10:42;;;;;;;;;;;;;;;4.90;90.21;96913.22;5073979;28;20060;-77
2021/10/28 05:13:12;;;;;;;;;;;;;;;4.88;89.79;96911.56;5073462;28;19951;-78
2021/10/28 05:15:42;;;;;;;;;;;;;;;4.88;89.43;96910.78;5074459;28;19964;-77
2021/10/28 05:18:09;;;;;;;;;;;;;;;4.89;89.19;96912.38;5073902;28;19955;-77
2021/10/28 05:20:35;;;;;;;;;;;;;;;4.91;89.01;96915.63;5073987;28;20405;-77
2021/10/28 05:23:01;;;;;;;;;;;;;;;4.91;89.05;96912.22;5074037;28;20007;-79
2021/10/28 05:25:27;;;;;;;;;;;;;;;4.92;88.67;96909.44;5073920;28;20374;-77
2021/10/28 05:27:53;;;;;;;;;;;;;;;4.94;88.42;96909.28;5072565;28;20044;-77
2021/10/28 05:30:19;;;;;;;;;;;;;;;4.96;88.25;96899.53;5073953;28;19955;-77
2021/10/28 05:32:45;;;;;;;;;;;;;;;4.98;88.19;96906.16;5073842;28;20439;-77
2021/10/28 05:35:11;;;;;;;;;;;;;;;4.99;88.17;96905.19;5073786;28;20063;-77
2021/10/28 05:37:37;;;;;;;;;;;;;;;5.00;88.23;96904.22;5073609;28;20324;-77
2021/10/28 05:40:03;;;;;;;;;;;;;;;5.03;88.47;96910.84;5073614;28;19989;-77
2021/10/28 05:42:30;;;;;;;;;;;;;;;5.03;88.47;96898.66;5074089;28;19966;-77
2021/10/28 05:44:56;;;;;;;;;;;;;;;5.05;88.31;96907.09;5073763;28;19958;-77
2021/10/28 05:47:22;;;;;;;;;;;;;;;5.05;88.27;96912.28;5073584;28;19958;-77
2021/10/28 05:49:48;;;;;;;;;;;;;;;5.05;88.24;96912.28;5073528;28;19952;-78
2021/10/28 05:52:15;;;;;;;;;;;;;;;5.04;88.63;96915.06;5073344;28;20005;-77
2021/10/28 05:54:41;;;;;;;;;;;;;;;5.02;88.60;96909.25;5073686;28;19963;-77
2021/10/28 05:57:07;;;;;;;;;;;;;;;5.02;88.40;96915.25;5073792;28;19954;-77
2021/10/28 05:59:33;;;;;;;;;;;;;;;5.03;88.55;96910.84;5073520;28;19961;-77
2021/10/28 06:01:59;;;;;;;;;;;;;;;5.04;88.32;96912.47;5073622;28;20013;-77
2021/10/28 06:04:25;;;;;;;;;;;;;;;5.06;88.21;96916.53;5073455;28;19956;-77
2021/10/28 06:06:51;;;;;;;;;;;;;;;5.06;88.17;96915.69;5073678;28;19967;-77
2021/10/28 06:09:17;;;;;;;;;;;;;;;5.05;88.33;96914.09;5073593;28;20375;-77
2021/10/28 06:11:43;;;;;;;;;;;;;;;5.03;87.82;96918.66;5073626;28;19952;-77
2021/10/28 06:14:09;;;;;;;;;;;;;;;5.03;87.95;96916.84;5073410;28;20407;-77
2021/10/28 06:16:40;;;;;;;;;;;;;;;5.02;88.02;96915.25;5073564;28;19958;-77
2021/10/28 06:19:06;;;;;;;;;;;;;;;5.04;87.96;96915.88;5073322;28;19984;-77
2021/10/28 06:21:32;;;;;;;;;;;;;;;5.06;87.83;96910.50;5073137;28;19965;-77
2021/10/28 06:23:58;;;;;;;;;;;;;;;5.07;88.01;96920.72;5073464;28;20317;-77
2021/10/28 06:26:26;;;;;;;;;;;;;;;5.07;88.61;96915.53;5075097;28;19949;-77
2021/10/28 06:28:53;;;;;;;;;;;;;;;5.07;87.95;96910.34;5077087;28;19964;-77
2021/10/28 06:31:20;;;;;;;;;;;;;;;5.08;88.21;96922.38;5076861;28;19962;-77
2021/10/28 06:33:53;;;;;;;;;;;;;;;5.09;88.36;96923.16;5076919;28;20437;-77
2021/10/28 06:36:20;;;;;;;;;;;;;;;5.09;88.41;96915.38;5077826;28;20326;-77
2021/10/28 06:38:46;;;;;;;;;;;;;;;5.12;88.40;96916.81;5077397;28;19955;-77
2021/10/28 06:41:12;;;;;;;;;;;;;;;5.12;88.44;96915.00;5076821;28;20399;-77
2021/10/28 06:43:38;;;;;;;;;;;;;;;5.16;88.55;96915.50;5077035;28;19973;-77
2021/10/28 06:46:04;;;;;;;;;;;;;;;5.15;88.24;96912.09;5076763;28;20018;-78
2021/10/28 06:48:30;;;;;;;;;;;;;;;5.12;88.15;96915.00;5076943;28;19961;-77
2021/10/28 06:50:58;;;;;;;;;;;;;;;5.09;88.49;96910.97;5076819;28;20416;-77
2021/10/28 06:53:26;;;;;;;;;;;;;;;5.07;88.30;96914.72;5076596;28;19971;-77
2021/10/28 07:03:52;;;;;;;;;;;;;;;5.13;88.69;96915.84;5066493;28;19977;-77
2021/10/28 07:06:21;;;;;;;;;;;;;;;5.09;88.76;96905.78;5076314;28;19957;-77
2021/10/28 07:08:52;;;;;;;;;;;;;;;5.12;89.05;96912.41;5076491;28;19959;-77
2021/10/28 07:11:31;;;;;;;;;;;;;;;5.17;89.26;96914.53;5076261;28;19957;-77
2021/10/28 07:13:58;;;;;;;;;;;;;;;5.24;89.29;96911.03;5076516;28;19965;-77
2021/10/28 07:16:35;;;;;;;;;;;;;;;5.29;89.40;96913.94;5076338;28;19961;-79
2021/10/28 07:30:10;;;;;;;;;;;;;;;5.52;89.59;96923.53;5076216;28;19962;-77
2021/10/28 07:32:54;;;;;;;;;;;;;;;5.59;89.84;96924.47;5075210;28;19964;-77
2021/10/28 08:05:46;;;;;;;;;;;;;;;6.08;91.21;96921.47;5075446;28;20320;-77
2021/10/28 08:19:04;;;;;;;;;;;;;;;6.46;91.48;96905.75;5075412;28;19957;-77
2021/10/28 08:29:26;;;;;;;;;;;;;;;6.64;91.63;96896.78;5075035;28;19970;-77
2021/10/28 08:31:52;;;;;;;;;;;;;;;6.62;90.70;96899.56;5074838;28;19953;-77
2021/10/28 08:34:22;;;;;;;;;;;;;;;6.63;92.41;96895.16;5074835;28;20336;-77
2021/10/28 08:36:51;;;;;;;;;;;;;;;6.66;93.70;96900.03;5074596;28;19998;-77
2021/10/28 08:39:20;;;;;;;;;;;;;;;6.70;92.22;96890.84;5074978;28;19961;-77
2021/10/28 08:41:46;;;;;;;;;;;;;;;6.76;91.96;96886.69;5074675;28;19956;-77
2021/10/28 08:44:14;;;;;;;;;;;;;;;6.79;92.06;96888.94;5074650;28;19994;-77
2021/10/28 08:46:43;;;;;;;;;;;;;;;6.79;91.49;96886.34;5074507;28;19950;-77
2021/10/28 08:49:16;;;;;;;;;;;;;;;6.80;92.25;96886.13;5073530;28;20395;-77
2021/10/28 08:52:34;;;;;;;;;;;;;;;6.85;92.17;96885.59;5073948;28;19961;-79
2021/10/28 08:54:49;;;;;;;;;;;;;;;6.84;90.93;96882.16;5060792;28;19962;-76
2021/10/28 08:57:37;;;;;;;;;;;;;;;6.88;91.07;96877.41;5074362;28;19955;-77
2021/10/28 09:25:29;;;;;;;;;;;;;;;7.89;88.95;96882.56;5064790;28;20334;-77
2021/10/28 09:28:06;;;;;;;;;;;;;;;7.88;88.78;96873.13;5074171;28;19975;-76
2021/10/28 09:30:37;;;;;;;;;;;;;;;7.87;89.65;96869.72;5074027;28;20045;-76
2021/10/28 09:33:07;;;;;;;;;;;;;;;7.90;88.78;96871.94;5072539;28;19955;-76
2021/10/28 09:44:45;;;;;;;;;;;;;;;7.97;89.56;96866.75;5073612;28;19971;-76
2021/10/28 09:47:51;;;;;;;;;;;;;;;8.05;89.62;96863.19;5073806;28;19958;-76
2021/10/28 09:50:35;;;;;;;;;;;;;;;8.14;88.42;96859.41;5061301;28;19952;-76
2021/10/28 09:53:25;;;;;;;;;;;;;;;8.30;88.02;96859.09;5073957;28;20343;-76
2021/10/28 09:58:33;;;;;;;;;;;;;;;8.55;87.01;96863.91;5073815;28;19952;-76
2021/10/28 10:01:01;;;;;;;;;;;;;;;8.57;86.28;96855.84;5078597;28;19955;-76
2021/10/28 10:03:31;;;;;;;;;;;;;;;8.69;86.32;96859.50;5080026;28;20344;-76
2021/10/28 10:06:04;;;;;;;;;;;;;;;8.87;86.87;96856.38;5080117;28;19960;-76
2021/10/28 10:08:31;;;;;;;;;;;;;;;9.02;85.06;96853.59;5080080;28;19956;-76
2021/10/28 10:10:57;;;;;;;;;;;;;;;9.10;84.53;96856.03;5080278;28;20435;-76
2021/10/28 10:13:24;;;;;;;;;;;;;;;9.27;84.90;96856.47;5079996;28;19957;-76
2021/10/28 10:15:53;;;;;;;;;;;;;;;9.46;84.29;96855.66;5080194;28;19952;-76
2021/10/28 10:18:22;;;;;;;;;;;;;;;9.60;83.70;96850.44;5080022;28;19954;-76
2021/10/28 10:21:12;;;;;;;;;;;;;;;9.72;83.23;96848.81;5078658;28;20338;-78
2021/10/28 10:24:04;;;;;;;;;;;;;;;9.95;82.87;96851.00;5072048;28;19964;-76
2021/10/28 12:25:06;;;;;;;;;;;;;;;14.07;68.09;96707.69;5065075;28;19989;-73
2021/10/28 13:03:26;;;;;;;;;;;;;;;14.37;66.93;96665.28;5072601;28;19958;-73
2021/10/28 13:36:07;;;;;;;;;;;;;;;15.22;62.95;96616.78;5058025;28;20434;-73
2021/10/28 13:57:40;;;;;;;;;;;;;;;15.56;60.81;96600.84;5073666;28;19958;-74
2021/10/28 14:25:26;;;;;;;;;;;;;;;15.40;60.70;96578.69;5073313;28;19974;-73
2021/10/28 14:36:45;;;;;;;;;;;;;;;15.19;61.13;96582.91;5073352;28;19959;-73
2021/10/28 14:39:05;;;;;;;;;;;;;;;15.16;61.65;96588.69;5066374;28;19973;-73
2021/10/28 15:30:30;;;;;;;;;;;;;;;15.38;63.52;96577.34;5076157;28;19958;-73
2021/10/28 15:35:32;;;;;;;;;;;;;;;15.14;63.60;96569.66;5076200;28;20431;-73
2021/10/28 15:40:39;;;;;;;;;;;;;;;14.79;63.95;96573.38;5075793;28;19962;-73
2021/10/28 15:51:43;;;;;;;;;;;;;;;14.12;65.83;96566.19;5076108;28;19960;-73
2021/10/28 15:54:13;;;;;;;;;;;;;;;13.98;65.98;96570.16;5075454;28;19986;-73
2021/10/28 15:57:24;;;;;;;;;;;;;;;13.84;66.23;96569.66;5075763;28;20437;-73
2021/10/28 16:24:08;;;;;;;;;;;;;;;12.60;68.60;96565.44;5063564;28;19980;-73
2021/10/28 16:26:35;;;;;;;;;;;;;;;12.50;68.78;96571.25;5075544;28;19957;-73
2021/10/28 16:29:03;;;;;;;;;;;;;;;12.42;68.74;96574.22;5074964;28;20360;-73
2021/10/28 16:31:29;;;;;;;;;;;;;;;12.32;69.09;96569.50;5074935;28;20345;-74
2021/10/28 16:33:55;;;;;;;;;;;;;;;12.22;69.20;96576.34;5074740;28;19959;-73
2021/10/28 16:36:23;;;;;;;;;;;;;;;12.14;69.49;96572.22;5073595;28;19968;-74
2021/10/28 16:38:50;;;;;;;;;;;;;;;12.06;69.51;96568.06;5074817;28;19961;-73
2021/10/28 16:41:17;;;;;;;;;;;;;;;11.98;69.42;96565.75;5075123;28;19960;-73
2021/10/28 16:43:43;;;;;;;;;;;;;;;11.91;69.59;96573.75;5074527;28;19963;-73
2021/10/28 16:46:08;;;;;;;;;;;;;;;11.83;70.10;96579.28;5074432;28;19988;-73
2021/10/28 16:48:35;;;;;;;;;;;;;;;11.77;69.99;96578.31;5074612;28;19965;-73
2021/10/28 16:51:01;;;;;;;;;;;;;;;11.70;70.21;96574.19;5074442;28;19963;-74
2021/10/28 16:53:27;;;;;;;;;;;;;;;11.61;69.95;96572.88;5074543;28;20472;-73
2021/10/28 16:55:53;;;;;;;;;;;;;;;11.53;70.38;96574.00;5074391;28;20000;-73
2021/10/28 16:58:19;;;;;;;;;;;;;;;11.46;70.63;96574.06;5074285;28;20336;-73
2021/10/28 17:00:49;;;;;;;;;;;;;;;11.38;70.79;96576.97;5073131;28;20041;-74
2021/10/28 17:03:15;;;;;;;;;;;;;;;11.29;70.49;96578.28;5074210;28;19956;-73
2021/10/28 17:05:42;;;;;;;;;;;;;;;11.20;70.61;96582.25;5074094;28;19982;-73
2021/10/28 17:08:08;;;;;;;;;;;;;;;11.12;70.81;96583.31;5074367;28;19958;-73
2021/10/28 17:10:34;;;;;;;;;;;;;;;11.07;70.79;96591.84;5073574;28;19975;-73
2021/10/28 17:13:00;;;;;;;;;;;;;;;10.96;71.28;96582.03;5074312;28;19959;-73
2021/10/28 17:15:26;;;;;;;;;;;;;;;10.89;71.31;96584.75;5073974;28;19958;-73
2021/10/28 17:17:52;;;;;;;;;;;;;;;10.84;71.46;96594.28;5074394;28;19966;-73
2021/10/28 17:20:19;;;;;;;;;;;;;;;10.77;71.66;96584.66;5073850;28;20365;-73
2021/10/28 17:22:45;;;;;;;;;;;;;;;10.70;71.44;96590.97;5073936;28;19967;-73
2021/10/28 17:25:18;;;;;;;;;;;;;;;10.63;71.73;96595.47;5074053;28;20329;-73
2021/10/28 17:27:45;;;;;;;;;;;;;;;10.57;71.70;96590.06;5073928;28;19961;-73
2021/10/28 17:30:12;;;;;;;;;;;;;;;10.53;73.31;96588.09;5073895;28;20415;-73
2021/10/28 17:32:40;;;;;;;;;;;;;;;10.48;72.10;96588.72;5073859;28;19957;-72
2021/10/28 17:35:06;;;;;;;;;;;;;;;10.44;72.17;96592.78;5073724;28;19958;-73
2021/10/28 17:37:32;;;;;;;;;;;;;;;10.39;72.40;96584.75;5073932;28;19971;-73
2021/10/28 17:39:58;;;;;;;;;;;;;;;10.33;72.25;96588.22;5073751;28;20408;-74
2021/10/28 17:42:25;;;;;;;;;;;;;;;10.25;72.37;96585.84;5073853;28;20044;-73
2021/10/28 17:44:56;;;;;;;;;;;;;;;10.20;72.17;96585.66;5073734;28;19966;-73
2021/10/28 17:47:23;;;;;;;;;;;;;;;10.16;72.48;96593.13;5072455;28;20432;-76
2021/10/28 17:49:51;;;;;;;;;;;;;;;10.10;72.76;96588.72;5073743;28;19982;-73
2021/10/28 17:52:18;;;;;;;;;;;;;;;10.04;72.63;96595.66;5073616;28;19990;-73
2021/10/28 17:54:44;;;;;;;;;;;;;;;10.00;72.80;96591.03;5073606;28;19957;-73
2021/10/28 17:57:12;;;;;;;;;;;;;;;9.96;72.82;96593.25;5073639;28;19959;-73
2021/10/28 17:59:38;;;;;;;;;;;;;;;9.90;72.93;96589.66;5073609;28;19959;-75
2021/10/28 18:02:04;;;;;;;;;;;;;;;9.88;72.92;96586.44;5073447;28;19958;-73
2021/10/28 18:04:31;;;;;;;;;;;;;;;9.84;72.93;96585.25;5073473;28;20425;-73
2021/10/28 18:06:57;;;;;;;;;;;;;;;9.80;73.19;96588.50;5073618;28;19973;-73
2021/10/28 18:09:24;;;;;;;;;;;;;;;9.74;73.18;96585.72;5073291;28;19953;-77
2021/10/28 18:11:54;;;;;;;;;;;;;;;9.69;73.20;96584.72;5073484;28;20443;-73
2021/10/28 18:14:21;;;;;;;;;;;;;;;9.63;73.46;96596.84;5073633;28;19954;-73
2021/10/28 18:16:47;;;;;;;;;;;;;;;9.58;73.61;96599.28;5073324;28;20467;-73
2021/10/28 18:19:13;;;;;;;;;;;;;;;9.52;73.51;96595.66;5073372;28;20408;-73
2021/10/28 18:21:42;;;;;;;;;;;;;;;9.46;73.75;96598.31;5076104;28;19967;-73
2021/10/28 18:24:09;;;;;;;;;;;;;;;9.41;73.78;96590.25;5077243;28;19954;-73
2021/10/28 18:26:35;;;;;;;;;;;;;;;9.36;73.94;96593.50;5077280;28;19961;-73
2021/10/28 18:29:02;;;;;;;;;;;;;;;9.31;74.02;96590.72;5077633;28;19959;-73
2021/10/28 18:31:28;;;;;;;;;;;;;;;9.26;74.09;96582.66;5077180;28;19949;-74
2021/10/28 18:33:58;;;;;;;;;;;;;;;9.22;74.00;96586.69;5077457;28;19975;-73
2021/10/28 18:36:25;;;;;;;;;;;;;;;9.20;74.06;96580.88;5077033;28;19974;-73
2021/10/28 18:38:51;;;;;;;;;;;;;;;9.16;74.18;96582.31;5076964;28;19955;-73
2021/10/28 18:41:18;;;;;;;;;;;;;;;9.13;74.26;96575.66;5075943;28;20416;-73
2021/10/28 18:43:46;;;;;;;;;;;;;;;9.09;74.51;96571.84;5076953;28;19962;-73
2021/10/28 18:46:21;;;;;;;;;;;;;;;9.05;74.53;96568.84;5077075;28;19971;-73
2021/10/28 18:48:51;;;;;;;;;;;;;;;8.98;74.63;96573.28;5062450;28;20438;-73
2021/10/28 18:51:17;;;;;;;;;;;;;;;8.94;74.73;96569.47;5076864;28;20333;-73
2021/10/28 18:53:45;;;;;;;;;;;;;;;8.88;74.78;96567.66;5077494;28;20424;-73
2021/10/28 18:56:11;;;;;;;;;;;;;;;8.84;74.96;96566.44;5076866;28;19954;-73
2021/10/28 18:58:38;;;;;;;;;;;;;;;8.80;74.89;96573.09;5076687;28;19953;-73
2021/10/28 19:01:04;;;;;;;;;;;;;;;8.76;74.92;96570.09;5076756;28;20330;-73
2021/10/28 19:03:30;;;;;;;;;;;;;;;8.73;75.11;96576.56;5076347;28;19943;-73
2021/10/28 19:05:58;;;;;;;;;;;;;;;8.69;74.94;96571.91;5076680;28;19974;-73
2021/10/28 19:08:24;;;;;;;;;;;;;;;8.65;75.23;96562.84;5076439;28;19951;-73
2021/10/28 19:10:51;;;;;;;;;;;;;;;8.61;75.17;96562.47;5076489;28;19986;-73
2021/10/28 19:13:17;;;;;;;;;;;;;;;8.58;75.10;96555.03;5076694;28;20317;-73
2021/10/28 19:15:43;;;;;;;;;;;;;;;8.54;75.24;96551.19;5076327;28;20396;-73
2021/10/28 19:18:09;;;;;;;;;;;;;;;8.49;75.17;96557.03;5076481;28;19958;-74
2021/10/28 19:20:35;;;;;;;;;;;;;;;8.48;75.35;96557.22;5076250;28;20472;-73
2021/10/28 19:23:01;;;;;;;;;;;;;;;8.43;75.61;96550.00;5076623;28;19957;-73
2021/10/28 19:25:27;;;;;;;;;;;;;;;8.40;75.68;96539.09;5076314;28;20422;-73
2021/10/28 19:27:56;;;;;;;;;;;;;;;8.39;75.51;96540.13;5076178;28;20016;-73
2021/10/28 19:33:40;;;;;;;;;;;;;;;8.34;75.51;96536.31;5053190;28;20368;-73
2021/10/28 19:36:11;;;;;;;;;;;;;;;8.32;75.73;96538.31;5074026;28;19970;-73
2021/10/28 19:46:52;;;;;;;;;;;;;;;8.18;76.19;96546.34;5075925;28;19951;-73
2021/10/28 19:49:18;;;;;;;;;;;;;;;8.14;76.24;96541.50;5075909;28;19947;-73
2021/10/28 19:51:44;;;;;;;;;;;;;;;8.12;76.16;96555.78;5075645;28;19951;-73
2021/10/28 19:54:12;;;;;;;;;;;;;;;8.07;76.34;96545.94;5075960;28;20088;-73
2021/10/28 19:56:40;;;;;;;;;;;;;;;8.03;76.26;96549.94;5075720;28;19959;-73
2021/10/28 19:59:06;;;;;;;;;;;;;;;7.99;76.38;96548.75;5076006;28;19971;-73
2021/10/28 20:01:43;;;;;;;;;;;;;;;7.97;76.42;96550.75;5075609;28;19960;-73
2021/10/28 20:14:46;;;;;;;;;;;;;;;7.76;76.72;96536.03;5075363;28;19980;-73
2021/10/28 20:20:05;;;;;;;;;;;;;;;7.65;76.69;96534.00;5075223;28;19977;-73
2021/10/28 20:22:32;;;;;;;;;;;;;;;7.63;76.75;96530.78;5075665;28;20317;-73
2021/10/28 20:24:58;;;;;;;;;;;;;;;7.58;76.99;96523.56;5075084;28;20331;-73
2021/10/28 20:27:24;;;;;;;;;;;;;;;7.58;77.16;96526.16;5075850;28;19950;-73
2021/10/28 20:29:50;;;;;;;;;;;;;;;7.55;77.05;96523.16;5074143;28;20439;-73
2021/10/28 20:32:17;;;;;;;;;;;;;;;7.53;77.16;96521.53;5074827;28;19958;-73
2021/10/28 20:35:02;;;;;;;;;;;;;;;7.53;77.07;96524.13;5075098;28;19970;-73
2021/10/28 20:37:29;;;;;;;;;;;;;;;7.49;77.23;96535.16;5060752;28;19952;-73
2021/10/28 20:39:55;;;;;;;;;;;;;;;7.45;77.22;96532.13;5074872;28;19966;-73
2021/10/28 20:42:21;;;;;;;;;;;;;;;7.42;76.96;96527.31;5074724;28;19951;-73
2021/10/28 20:44:48;;;;;;;;;;;;;;;7.37;77.03;96527.13;5073761;28;19962;-73
2021/10/28 20:47:14;;;;;;;;;;;;;;;7.34;77.05;96518.84;5074814;28;19954;-73
2021/10/28 20:49:40;;;;;;;;;;;;;;;7.31;77.19;96525.28;5074759;28;19959;-73
2021/10/28 20:52:07;;;;;;;;;;;;;;;7.29;77.00;96529.88;5074481;28;20422;-75
2021/10/28 20:54:33;;;;;;;;;;;;;;;7.27;77.12;96524.06;5065348;28;19974;-73
2021/10/28 20:57:02;;;;;;;;;;;;;;;7.24;77.13;96530.44;5074386;28;19954;-74
2021/10/28 20:59:29;;;;;;;;;;;;;;;7.21;77.05;96527.44;5074499;28;19956;-73
2021/10/28 21:01:56;;;;;;;;;;;;;;;7.18;77.20;96525.19;5074562;28;19960;-73
2021/10/28 21:04:22;;;;;;;;;;;;;;;7.15;77.32;96518.59;5074216;28;19959;-74
2021/10/28 21:06:48;;;;;;;;;;;;;;;7.13;77.42;96522.38;5074219;28;20344;-73
2021/10/28 21:09:14;;;;;;;;;;;;;;;7.08;77.39;96515.16;5074128;28;20067;-73
2021/10/28 21:11:40;;;;;;;;;;;;;;;7.04;77.48;96512.13;5074144;28;19986;-73
2021/10/28 21:14:07;;;;;;;;;;;;;;;7.03;77.55;96509.69;5074430;28;19961;-73
2021/10/28 21:16:33;;;;;;;;;;;;;;;7.01;77.52;96512.47;5074323;28;19956;-73
2021/10/28 21:19:00;;;;;;;;;;;;;;;7.01;77.63;96509.88;5074352;28;19950;-74
2021/10/28 21:21:26;;;;;;;;;;;;;;;7.01;77.69;96504.66;5074009;28;20430;-74
2021/10/28 21:23:52;;;;;;;;;;;;;;;7.01;77.66;96509.88;5074312;28;19955;-74
2021/10/28 21:26:18;;;;;;;;;;;;;;;7.00;78.15;96508.28;5074453;28;19983;-73
2021/10/28 21:28:45;;;;;;;;;;;;;;;6.99;78.21;96498.88;5073842;28;20337;-73
2021/10/28 21:31:11;;;;;;;;;;;;;;;6.97;78.22;96503.47;5074051;28;19949;-73
2021/10/28 21:33:38;;;;;;;;;;;;;;;6.95;78.71;96500.25;5073806;28;20317;-74
2021/10/28 21:36:04;;;;;;;;;;;;;;;6.95;78.55;96504.63;5073860;28;20336;-74
2021/10/28 21:38:30;;;;;;;;;;;;;;;6.90;78.72;96498.19;5073715;28;20011;-74
2021/10/28 21:40:56;;;;;;;;;;;;;;;6.87;78.70;96501.19;5074106;28;19956;-74